createdAt,value
2023-01-09T00:01:39.188Z,18.98
2023-01-09T00:04:07.478Z,29.95
2023-01-09T00:06:35.320Z,35.85
2023-01-09T00:09:03.034Z,29.20
2023-01-09T00:11:30.598Z,15.18
2023-01-09T00:13:59.524Z,15.85
2023-01-09T00:16:27.209Z,25.92
2023-01-09T00:18:54.969Z,18.67
2023-01-09T00:21:22.722Z,21.42
2023-01-09T00:23:50.678Z,30.13
2023-01-09T00:26:19.481Z,27.38
2023-01-09T00:28:47.408Z,25.75
2023-01-09T00:31:16.619Z,27.95
2023-01-09T00:33:48.034Z,28.77
2023-01-09T00:36:15.669Z,18.20
2023-01-09T00:38:43.150Z,27.40
2023-01-09T00:41:12.755Z,25.33
2023-01-09T00:43:42.908Z,28.40
2023-01-09T00:46:10.928Z,33.70
2023-01-09T00:48:42.219Z,26.05
2023-01-09T00:51:09.897Z,30.90
2023-01-09T00:53:38.468Z,23.80
2023-01-09T00:56:07.797Z,28.38
2023-01-09T00:58:35.978Z,20.92
2023-01-09T01:01:03.854Z,31.83
2023-01-09T01:03:31.500Z,21.13
2023-01-09T01:06:18.069Z,24.17
2023-01-09T01:08:45.737Z,26.33
2023-01-09T01:11:13.710Z,27.17
2023-01-09T01:13:41.941Z,27.67
2023-01-09T01:16:11.243Z,27.50
2023-01-09T01:18:39.024Z,18.90
2023-01-09T01:21:09.064Z,28.38
2023-01-09T01:23:37.438Z,22.88
2023-01-09T01:26:05.790Z,21.40
2023-01-09T01:28:33.330Z,28.90
2023-01-09T01:31:01.348Z,24.80
2023-01-09T01:33:28.904Z,17.65
2023-01-09T01:36:03.441Z,23.90
2023-01-09T01:38:33.149Z,23.90
2023-01-09T01:41:01.423Z,31.23
2023-01-09T01:43:29.293Z,17.05
2023-01-09T01:45:56.985Z,22.38
2023-01-09T01:48:27.631Z,34.45
2023-01-09T01:50:59.466Z,14.23
2023-01-09T01:53:28.010Z,21.83
2023-01-09T01:56:02.665Z,21.50
2023-01-09T01:58:31.250Z,23.55
2023-01-09T02:00:59.313Z,35.35
2023-01-09T02:03:28.426Z,22.75
2023-01-09T02:05:56.277Z,28.10
2023-01-09T02:08:23.845Z,16.33
2023-01-09T02:10:51.972Z,26.88
2023-01-09T02:13:21.350Z,10.75
2023-01-09T02:15:56.481Z,16.30
2023-01-09T02:18:29.219Z,19.90
2023-01-09T02:20:59.436Z,17.35
2023-01-09T02:23:53.110Z,19.90
2023-01-09T02:26:28.405Z,23.17
2023-01-09T02:29:14.708Z,16.63
2023-01-09T02:31:47.536Z,18.77
2023-01-09T02:34:17.036Z,13.33
2023-01-09T02:36:48.467Z,19.05
2023-01-09T02:39:19.229Z,19.92
2023-01-09T02:41:48.916Z,18.15
2023-01-09T02:44:17.722Z,15.65
2023-01-09T02:46:46.641Z,18.92
2023-01-09T02:49:16.680Z,16.88
2023-01-09T02:51:51.351Z,15.40
2023-01-09T02:54:23.051Z,19.95
2023-01-09T02:56:58.530Z,18.80
2023-01-09T02:59:30.212Z,16.67
2023-01-09T03:02:08.013Z,14.18
2023-01-09T03:04:43.378Z,11.30
2023-01-09T03:07:15.022Z,20.35
2023-01-09T03:09:43.835Z,13.45
2023-01-09T03:12:14.750Z,26.27
2023-01-09T03:14:46.783Z,23.85
2023-01-09T03:17:17.606Z,20.00
2023-01-09T03:19:46.387Z,17.48
2023-01-09T03:22:14.371Z,16.52
2023-01-09T03:24:41.836Z,19.48
2023-01-09T03:27:09.699Z,16.63
2023-01-09T03:29:38.416Z,14.98
2023-01-09T03:32:06.303Z,20.63
2023-01-09T03:34:35.678Z,12.32
2023-01-09T03:37:04.453Z,29.38
2023-01-09T03:39:32.104Z,17.15
2023-01-09T03:41:59.652Z,17.83
2023-01-09T03:44:27.118Z,15.25
2023-01-09T03:46:54.727Z,13.25
2023-01-09T03:49:22.650Z,20.58
2023-01-09T03:51:51.864Z,15.68
2023-01-09T03:54:19.359Z,20.50
2023-01-09T03:56:46.940Z,19.67
2023-01-09T03:59:14.791Z,16.85
2023-01-09T04:01:42.530Z,15.02
2023-01-09T04:04:10.126Z,10.02
2023-01-09T04:06:38.015Z,11.32
2023-01-09T04:09:07.038Z,13.48
2023-01-09T04:11:34.854Z,14.63
2023-01-09T04:14:02.393Z,17.80
2023-01-09T04:16:30.311Z,14.27
2023-01-09T04:18:57.909Z,27.17
2023-01-09T04:24:08.776Z,18.67
2023-01-09T04:26:36.544Z,23.55
2023-01-09T04:29:06.736Z,23.77
2023-01-09T04:31:34.506Z,18.67
2023-01-09T04:34:03.040Z,9.50
2023-01-09T04:36:31.971Z,16.95
2023-01-09T04:38:59.503Z,16.63
2023-01-09T04:41:45.977Z,25.83
2023-01-09T04:44:13.505Z,18.33
2023-01-09T04:46:41.114Z,14.88
2023-01-09T04:49:13.058Z,18.45
2023-01-09T04:51:40.730Z,19.30
2023-01-09T04:54:08.324Z,19.80
2023-01-09T04:56:37.809Z,20.23
2023-01-09T04:59:06.065Z,17.98
2023-01-09T05:01:33.804Z,12.50
2023-01-09T05:04:01.538Z,13.23
2023-01-09T05:06:29.180Z,14.50
2023-01-09T05:08:57.327Z,17.35
2023-01-09T05:11:25.536Z,17.70
2023-01-09T05:13:54.622Z,16.23
2023-01-09T05:16:26.684Z,13.65
2023-01-09T05:18:56.703Z,16.08
2023-01-09T05:21:24.522Z,19.20
2023-01-09T05:23:52.191Z,15.27
2023-01-09T05:26:23.318Z,19.33
2023-01-09T05:28:51.007Z,15.95
2023-01-09T05:31:20.650Z,18.38
2023-01-09T05:33:48.224Z,17.02
2023-01-09T05:36:17.294Z,15.63
2023-01-09T05:38:44.838Z,25.75
2023-01-09T05:41:14.257Z,21.05
2023-01-09T05:43:41.828Z,16.80
2023-01-09T05:46:09.983Z,20.27
2023-01-09T05:48:38.923Z,19.52
2023-01-09T05:51:06.967Z,28.88
2023-01-09T05:53:34.640Z,20.48
2023-01-09T05:56:02.475Z,24.48
2023-01-09T05:58:30.289Z,19.75
2023-01-09T06:00:59.289Z,20.77
2023-01-09T06:03:28.766Z,8.85
2023-01-09T06:05:58.237Z,21.95
2023-01-09T06:08:25.852Z,16.67
2023-01-09T06:10:53.872Z,16.35
2023-01-09T06:13:21.469Z,13.63
2023-01-09T06:15:49.613Z,16.50
2023-01-09T06:18:17.599Z,18.20
2023-01-09T06:20:45.521Z,26.63
2023-01-09T06:23:14.570Z,17.10
2023-01-09T06:25:42.342Z,22.88
2023-01-09T06:28:09.857Z,12.77
2023-01-09T06:30:37.388Z,17.17
2023-01-09T06:33:05.031Z,14.45
2023-01-09T06:35:32.517Z,17.27
2023-01-09T06:45:11.229Z,16.10
2023-01-09T06:47:39.311Z,15.30
2023-01-09T06:50:07.319Z,14.65
2023-01-09T06:52:35.104Z,17.90
2023-01-09T06:55:05.488Z,18.98
2023-01-09T06:57:33.348Z,13.50
2023-01-09T07:00:01.125Z,17.83
2023-01-09T07:02:30.092Z,18.30
2023-01-09T07:04:57.651Z,16.85
2023-01-09T07:07:25.394Z,14.63
2023-01-09T07:09:53.214Z,17.92
2023-01-09T07:12:20.831Z,29.85
2023-01-09T07:14:48.434Z,17.17
2023-01-09T07:17:16.349Z,30.05
2023-01-09T07:19:45.219Z,13.18
2023-01-09T07:22:14.359Z,20.33
2023-01-09T07:24:45.541Z,18.85
2023-01-09T07:27:13.265Z,20.92
2023-01-09T07:29:51.320Z,25.08
2023-01-09T07:32:18.848Z,18.08
2023-01-09T07:34:49.256Z,17.27
2023-01-09T07:37:20.774Z,20.55
2023-01-09T07:39:48.250Z,16.83
2023-01-09T07:42:16.075Z,29.88
2023-01-09T07:44:43.647Z,23.75
2023-01-09T07:47:11.485Z,17.92
2023-01-09T07:49:39.023Z,27.42
2023-01-09T07:52:07.925Z,21.23
2023-01-09T07:54:37.700Z,26.85
2023-01-09T07:57:05.292Z,22.25
2023-01-09T07:59:34.651Z,25.42
2023-01-09T08:02:05.571Z,33.97
2023-01-09T08:04:33.259Z,23.83
2023-01-09T08:07:01.441Z,25.00
2023-01-09T08:09:30.722Z,20.50
2023-01-09T08:11:58.610Z,16.77
2023-01-09T08:14:26.334Z,28.42
2023-01-09T08:16:53.957Z,20.23
2023-01-09T08:19:21.540Z,35.85
2023-01-09T08:21:49.191Z,25.85
2023-01-09T08:24:16.686Z,22.20
2023-01-09T08:26:45.633Z,21.92
2023-01-09T08:29:13.316Z,22.83
2023-01-09T08:31:41.559Z,20.13
2023-01-09T08:34:09.133Z,19.10
2023-01-09T08:36:37.245Z,19.73
2023-01-09T08:39:07.628Z,38.35
2023-01-09T08:41:54.856Z,20.70
2023-01-09T08:44:41.677Z,21.15
2023-01-09T08:47:09.500Z,18.95
2023-01-09T08:49:38.218Z,25.30
2023-01-09T08:52:07.220Z,19.63
2023-01-09T08:54:36.929Z,31.30
2023-01-09T08:57:06.620Z,22.40
2023-01-09T08:59:36.957Z,22.27
2023-01-09T09:02:04.573Z,35.42
2023-01-09T09:04:32.245Z,24.65
2023-01-09T09:06:59.775Z,26.20
2023-01-09T09:09:27.628Z,23.27
2023-01-09T09:11:55.185Z,30.02
2023-01-09T09:14:41.416Z,27.33
2023-01-09T09:17:10.641Z,32.30
2023-01-09T09:19:39.555Z,29.25
2023-01-09T09:22:07.219Z,25.75
2023-01-09T09:24:34.736Z,24.90
2023-01-09T09:27:03.185Z,26.55
2023-01-09T09:29:30.718Z,24.50
2023-01-09T09:32:00.810Z,26.17
2023-01-09T09:34:29.993Z,20.08
2023-01-09T09:36:59.037Z,25.23
2023-01-09T09:39:26.873Z,19.92
2023-01-09T09:42:31.015Z,25.52
2023-01-09T09:45:07.486Z,20.70
2023-01-09T09:47:44.187Z,20.10
2023-01-09T09:50:17.906Z,20.77
2023-01-09T09:52:50.902Z,27.33
2023-01-09T09:55:20.055Z,24.87
2023-01-09T09:57:48.696Z,25.80
2023-01-09T10:00:18.630Z,24.65
2023-01-09T10:02:50.501Z,18.85
2023-01-09T10:05:22.426Z,26.27
2023-01-09T10:07:51.111Z,21.88
2023-01-09T10:10:21.844Z,15.57
2023-01-09T10:12:53.890Z,18.10
2023-01-09T10:15:27.377Z,28.45
2023-01-09T10:18:00.952Z,15.50
2023-01-09T10:20:46.881Z,22.05
2023-01-09T10:23:27.223Z,20.08
2023-01-09T10:26:13.187Z,24.98
2023-01-09T10:28:54.940Z,23.13
2023-01-09T10:31:27.557Z,18.50
2023-01-09T10:34:10.895Z,18.52
2023-01-09T10:36:57.030Z,22.40
2023-01-09T10:39:32.899Z,19.20
2023-01-09T10:42:03.844Z,18.27
2023-01-09T10:44:39.305Z,20.92
2023-01-09T10:47:12.564Z,21.98
2023-01-09T10:49:43.424Z,16.67
2023-01-09T10:52:18.301Z,24.35
2023-01-09T10:54:50.894Z,18.65
2023-01-09T10:57:22.900Z,21.88
2023-01-09T11:00:00.468Z,19.73
2023-01-09T11:02:31.811Z,17.85
2023-01-09T11:05:05.266Z,12.10
2023-01-09T11:07:50.997Z,18.75
2023-01-09T11:10:19.432Z,18.23
2023-01-09T11:12:51.933Z,25.45
2023-01-09T11:18:33.516Z,27.38
2023-01-09T11:21:17.133Z,24.98
2023-01-09T11:24:00.588Z,25.50
2023-01-09T11:26:35.289Z,14.27
2023-01-09T11:29:11.880Z,13.63
2023-01-09T11:32:05.371Z,23.98
2023-01-09T11:34:48.845Z,18.10
2023-01-09T11:37:29.125Z,17.90
2023-01-09T11:40:02.453Z,13.98
2023-01-09T11:42:48.980Z,19.90
2023-01-09T11:45:18.630Z,23.48
2023-01-09T11:47:48.941Z,18.88
2023-01-09T11:50:39.529Z,34.30
2023-01-09T11:53:14.597Z,22.33
2023-01-09T11:55:57.260Z,16.55
2023-01-09T11:58:27.942Z,22.15
2023-01-09T12:01:00.407Z,28.27
2023-01-09T12:07:08.508Z,25.95
2023-01-09T12:09:40.052Z,21.38
2023-01-09T12:12:18.576Z,23.77
2023-01-09T12:14:59.411Z,27.40
2023-01-09T12:17:46.087Z,18.17
2023-01-09T12:20:34.324Z,33.15
2023-01-09T12:23:14.377Z,21.38
2023-01-09T12:25:47.685Z,23.52
2023-01-09T12:28:37.520Z,31.50
2023-01-09T12:31:11.643Z,20.98
2023-01-09T12:33:42.893Z,24.75
2023-01-09T12:36:15.401Z,19.52
2023-01-09T12:38:50.525Z,31.67
2023-01-09T12:41:33.020Z,24.55
2023-01-09T12:44:10.305Z,21.67
2023-01-09T12:46:42.759Z,22.35
2023-01-09T12:49:18.139Z,23.58
2023-01-09T12:51:48.150Z,21.15
2023-01-09T12:54:49.035Z,19.70
2023-01-09T12:57:37.023Z,20.80
2023-01-09T13:00:22.876Z,22.02
2023-01-09T13:03:12.633Z,32.35
2023-01-09T13:05:46.231Z,13.43
2023-01-09T13:08:19.993Z,23.15
2023-01-09T13:11:19.429Z,23.27
2023-01-09T13:13:56.742Z,32.03
2023-01-09T13:16:37.415Z,24.65
2023-01-09T13:19:09.585Z,28.38
2023-01-09T13:21:39.048Z,33.10
2023-01-09T13:24:10.148Z,22.42
2023-01-09T13:27:03.544Z,26.67
2023-01-09T13:33:02.781Z,14.88
2023-01-09T13:35:30.363Z,40.97
2023-01-09T13:38:21.132Z,22.17
2023-01-09T13:42:15.017Z,25.85
2023-01-09T13:44:58.475Z,33.58
2023-01-09T13:47:27.955Z,23.52
2023-01-09T13:50:31.018Z,31.30
2023-01-09T13:53:20.749Z,14.32
2023-01-09T13:56:03.499Z,26.85
2023-01-09T13:58:53.313Z,32.00
2023-01-09T14:01:40.185Z,29.10
2023-01-09T14:04:27.684Z,22.63
2023-01-09T14:07:10.118Z,25.27
2023-01-09T14:09:38.919Z,24.13
2023-01-09T14:12:12.001Z,21.55
2023-01-09T14:14:59.912Z,22.88
2023-01-09T14:17:37.745Z,22.65
2023-01-09T14:20:06.611Z,27.95
2023-01-09T14:22:45.484Z,23.70
2023-01-09T14:25:25.144Z,26.40
2023-01-09T14:28:11.658Z,45.90
2023-01-09T14:31:03.735Z,22.63
2023-01-09T14:33:32.899Z,18.85
2023-01-09T14:36:15.960Z,22.50
2023-01-09T14:38:45.165Z,21.92
2023-01-09T14:41:20.986Z,25.13
2023-01-09T14:43:54.940Z,21.33
2023-01-09T14:48:58.026Z,15.57
2023-01-09T14:51:26.814Z,30.20
2023-01-09T14:53:54.640Z,25.35
2023-01-09T14:56:27.105Z,27.35
2023-01-09T14:59:04.621Z,21.13
2023-01-09T15:01:34.013Z,23.17
2023-01-09T15:04:04.095Z,30.73
2023-01-09T15:06:34.301Z,29.30
2023-01-09T15:09:21.986Z,38.33
2023-01-09T15:11:49.847Z,23.45
2023-01-09T15:14:34.246Z,25.80
2023-01-09T15:17:05.159Z,22.25
2023-01-09T15:19:36.306Z,27.33
2023-01-09T15:22:05.708Z,31.33
2023-01-09T15:24:34.505Z,31.52
2023-01-09T15:27:03.061Z,21.60
2023-01-09T15:29:30.635Z,24.05
2023-01-09T15:32:03.928Z,28.45
2023-01-09T15:34:31.909Z,30.10
2023-01-09T15:37:02.172Z,42.20
2023-01-09T15:39:33.958Z,27.52
2023-01-09T15:42:18.777Z,31.50
2023-01-09T15:44:49.201Z,22.63
2023-01-09T15:47:18.613Z,22.00
2023-01-09T15:49:47.040Z,28.70
2023-01-09T15:52:16.954Z,25.73
2023-01-09T15:54:46.079Z,24.13
2023-01-09T15:57:35.430Z,23.92
2023-01-09T16:00:21.785Z,30.75
2023-01-09T16:03:06.607Z,20.75
2023-01-09T16:05:34.464Z,19.80
2023-01-09T16:08:03.428Z,19.45
2023-01-09T16:10:32.293Z,26.77
2023-01-09T16:13:00.422Z,29.88
2023-01-09T16:15:28.495Z,15.23
2023-01-09T16:18:06.317Z,26.38
2023-01-09T16:20:36.859Z,21.40
2023-01-09T16:23:20.622Z,18.85
2023-01-09T16:25:48.497Z,19.52
2023-01-09T16:28:21.087Z,26.58
2023-01-09T16:30:53.474Z,17.95
2023-01-09T16:33:22.090Z,17.20
2023-01-09T16:35:50.029Z,22.60
2023-01-09T16:38:19.297Z,29.88
2023-01-09T16:41:22.870Z,16.65
2023-01-09T16:43:49.726Z,18.10
2023-01-09T16:46:18.730Z,19.13
2023-01-09T16:48:46.447Z,23.10
2023-01-09T16:51:15.875Z,16.05
2023-01-09T16:53:45.175Z,18.90
2023-01-09T16:56:18.573Z,15.23
2023-01-09T16:58:46.451Z,20.38
2023-01-09T17:01:15.054Z,14.90
2023-01-09T17:03:43.975Z,17.95
2023-01-09T17:06:15.906Z,23.08
2023-01-09T17:08:45.666Z,18.13
2023-01-09T17:11:22.695Z,10.68
2023-01-09T17:13:57.403Z,18.02
2023-01-09T17:16:25.097Z,19.33
2023-01-09T17:18:54.164Z,18.42
2023-01-09T17:21:22.612Z,17.10
2023-01-09T17:24:12.233Z,12.05
2023-01-09T17:26:58.332Z,18.33
2023-01-09T17:29:26.043Z,14.23
2023-01-09T17:31:54.258Z,13.38
2023-01-09T17:34:23.207Z,10.82
2023-01-09T17:36:51.288Z,14.00
2023-01-09T17:39:20.567Z,16.80
2023-01-09T17:41:48.366Z,10.63
2023-01-09T17:44:16.185Z,13.50
2023-01-09T17:46:45.986Z,18.42
2023-01-09T17:49:29.104Z,8.80
2023-01-09T17:52:01.425Z,14.73
2023-01-09T17:54:31.762Z,16.88
2023-01-09T17:57:00.131Z,15.02
2023-01-09T17:59:31.590Z,12.88
2023-01-09T18:01:59.260Z,15.20
2023-01-09T18:04:27.272Z,10.63
2023-01-09T18:06:55.116Z,14.40
2023-01-09T18:09:23.011Z,12.15
2023-01-09T18:11:57.243Z,10.63
2023-01-09T18:14:25.449Z,12.13
2023-01-09T18:16:55.840Z,11.68
2023-01-09T18:19:23.507Z,16.13
2023-01-09T18:21:51.319Z,9.40
2023-01-09T18:24:18.911Z,13.70
2023-01-09T18:26:46.466Z,10.82
2023-01-09T18:29:15.375Z,17.15
2023-01-09T18:31:43.369Z,13.18
2023-01-09T18:34:11.047Z,12.18
2023-01-09T18:36:39.135Z,14.77
2023-01-09T18:39:07.161Z,10.70
2023-01-09T18:41:34.854Z,14.88
2023-01-09T18:44:03.096Z,11.50
2023-01-09T18:46:32.796Z,15.25
2023-01-09T18:49:01.819Z,10.68
2023-01-09T18:51:31.692Z,7.80
2023-01-09T18:53:59.821Z,10.25
2023-01-09T18:56:28.375Z,10.50
2023-01-09T18:58:57.273Z,7.88
2023-01-09T19:01:25.421Z,12.63
2023-01-09T19:03:55.388Z,11.80
2023-01-09T19:06:23.137Z,10.80
2023-01-09T19:08:50.762Z,19.80
2023-01-09T19:11:18.342Z,13.05
2023-01-09T19:13:45.993Z,7.90
2023-01-09T19:16:13.668Z,10.05
2023-01-09T19:18:42.480Z,6.75
2023-01-09T19:21:12.711Z,5.90
2023-01-09T19:23:43.914Z,5.15
2023-01-09T19:26:16.966Z,5.60
2023-01-09T19:28:46.667Z,14.37
2023-01-09T19:31:14.811Z,5.97
2023-01-09T19:33:42.606Z,8.57
2023-01-09T19:36:12.419Z,4.22
2023-01-09T19:38:40.351Z,9.25
2023-01-09T19:41:09.785Z,9.40
2023-01-09T19:43:39.389Z,8.45
2023-01-09T19:46:08.454Z,11.45
2023-01-09T19:48:36.164Z,9.80
2023-01-09T19:51:04.525Z,4.40
2023-01-09T19:53:33.866Z,12.18
2023-01-09T19:56:09.416Z,4.85
2023-01-09T19:58:36.974Z,8.82
2023-01-09T20:01:08.469Z,8.02
2023-01-09T20:03:37.477Z,6.00
2023-01-09T20:06:05.937Z,5.82
2023-01-09T20:08:34.788Z,7.30
2023-01-09T20:11:02.676Z,9.30
2023-01-09T20:13:30.681Z,6.18
2023-01-09T20:15:59.124Z,5.75
2023-01-09T20:18:26.886Z,6.15
2023-01-09T20:20:55.414Z,7.07
2023-01-09T20:23:23.182Z,6.75
2023-01-09T20:25:52.418Z,7.60
2023-01-09T20:28:20.133Z,9.57
2023-01-09T20:30:49.347Z,8.80
2023-01-09T20:33:17.268Z,11.95
2023-01-09T20:35:45.281Z,5.85
2023-01-09T20:38:12.927Z,9.40
2023-01-09T20:40:44.501Z,9.20
2023-01-09T20:43:13.585Z,8.07
2023-01-09T20:45:41.459Z,14.48
2023-01-09T20:48:18.005Z,8.00
2023-01-09T20:50:48.435Z,13.60
2023-01-09T20:53:16.011Z,6.68
2023-01-09T20:55:43.549Z,5.90
2023-01-09T20:58:11.095Z,7.07
2023-01-09T21:00:40.359Z,4.60
2023-01-09T21:03:07.935Z,7.20
2023-01-09T21:05:36.479Z,5.00
2023-01-09T21:08:04.240Z,3.55
2023-01-09T21:10:35.762Z,10.68
2023-01-09T21:13:04.601Z,2.67
2023-01-09T21:15:32.306Z,4.22
2023-01-09T21:18:02.477Z,4.97
2023-01-09T21:20:31.666Z,6.22
2023-01-09T21:22:59.301Z,6.07
2023-01-09T21:25:27.002Z,9.27
2023-01-09T21:27:54.552Z,5.68
2023-01-09T21:30:26.778Z,7.25
2023-01-09T21:32:56.102Z,6.32
2023-01-09T21:35:24.913Z,3.15
2023-01-09T21:37:52.971Z,7.82
2023-01-09T21:40:20.696Z,3.97
2023-01-09T21:43:12.854Z,7.18
2023-01-09T21:45:58.598Z,4.65
2023-01-09T21:48:26.135Z,6.93
2023-01-09T21:50:55.117Z,13.25
2023-01-09T21:53:23.530Z,9.77
2023-01-09T21:55:51.026Z,7.80
2023-01-09T21:58:18.602Z,5.07
2023-01-09T22:00:46.123Z,7.93
2023-01-09T22:03:18.590Z,3.08
2023-01-09T22:05:46.497Z,6.75
2023-01-09T22:08:15.487Z,7.65
2023-01-09T22:10:43.068Z,8.52
2023-01-09T22:13:17.859Z,6.55
2023-01-09T22:15:47.638Z,3.55
2023-01-09T22:18:18.010Z,2.97
2023-01-09T22:20:49.476Z,9.18
2023-01-09T22:23:18.406Z,2.33
2023-01-09T22:25:46.088Z,5.90
2023-01-09T22:28:17.837Z,2.65
2023-01-09T22:30:45.384Z,4.25
2023-01-09T22:33:18.991Z,5.65
2023-01-09T22:35:46.537Z,2.60
2023-01-09T22:38:14.023Z,7.35
2023-01-09T22:40:43.982Z,5.82
2023-01-09T22:43:16.114Z,3.60
2023-01-09T22:45:43.716Z,5.70
2023-01-09T22:48:11.257Z,3.80
2023-01-09T22:50:39.795Z,5.50
2023-01-09T22:53:07.302Z,8.00
2023-01-09T22:55:34.831Z,9.98
2023-01-09T22:58:03.785Z,6.35
2023-01-09T23:00:31.511Z,3.38
2023-01-09T23:03:00.336Z,4.80
2023-01-09T23:05:27.939Z,5.68
2023-01-09T23:07:55.442Z,3.13
2023-01-09T23:10:23.034Z,6.40
2023-01-09T23:12:50.510Z,7.00
2023-01-09T23:15:19.413Z,13.70
2023-01-09T23:17:47.621Z,9.65
2023-01-09T23:20:15.130Z,11.43
2023-01-09T23:22:42.686Z,6.40
2023-01-09T23:25:14.306Z,5.28
2023-01-09T23:27:43.159Z,4.80
2023-01-09T23:30:11.279Z,5.47
2023-01-09T23:32:40.085Z,7.38
2023-01-09T23:35:07.862Z,8.55
2023-01-09T23:37:35.365Z,8.32
2023-01-09T23:40:03.196Z,4.90
2023-01-09T23:42:48.571Z,7.22
2023-01-09T23:45:16.103Z,5.85
2023-01-09T23:47:44.955Z,5.72
2023-01-09T23:50:12.592Z,7.28
2023-01-09T23:52:40.194Z,17.90
2023-01-09T23:55:10.966Z,5.60
2023-01-09T23:57:38.920Z,7.65
